Page Municipal Airport
KPGA : now visible

Airfield :











YOU CAN JOIN US ON...

 
LOGIN :

Register | Disclaimer

   EN    FR    IT 

 









Legend :    VFR   Marginal VFR   IFR   Intensive IFR   Very Intensive IFR
Visi :
Ceiling :
>= 8 km
>= 3000ft
5 to 8 km
1000 to 3000 ft
1500m to 5 km
500 to 1000 ft
800 to 1500m
200 to 500 ft
< 800m
< 200 ft
Symbols :   Thunderstorms  Fog  Heavy snow  Heavy precipitations  Wind > 20 kt






- Airport Elevation : 4316 ft


KPGA - Page Municipal

CURRENT METAR :
  • 231453Z AUTO 23008G21KT 10SM CLR 22/M04 A2982 RMK AO2 SLP034 T02221039 51004

EXPIRED METARs :
  • 231353Z AUTO 21005KT 10SM CLR 21/M04 A2982 RMK AO2 SLP034 T02111044
  • 231253Z AUTO 00000KT 10SM CLR 19/M06 A2981 RMK AO2 SLP032 T01891056
  • 231153Z AUTO VRB05KT 10SM CLR 19/M06 A2981 RMK AO2 SLP028 T01941061 10228 20194 56003
  • 231053Z AUTO 22007G15KT 10SM CLR 21/M07 A2981 RMK AO2 SLP028 T02061067

TAF KPGA
Valid from the 23 at 15:00 until the 24 at 12:00 UTC


231527Z 2315/2412 23010G20KT P6SM SKC
FM231700 25010G17KT P6SM SKC
FM240300 27008KT P6SM FEW250
KZDV FIR / North America



MET'MAP, your aeronautical weather chart ! - Copyright ORBIFLY December 2007 - Disclaimer

ORBIFLY MET'MAP TEAM :

Programming & Development : Alexandra Zaïnal
Original concept : Baudouin d'Aumeries
Technical & hardware support : Manuel Goepfert
Assistance : Marc-Olivier Méhu




SOURCES & CREDITS :

   NOAA       Earth
Advisory